createdAt,value
2019-01-25T00:02:16.983Z,29.80
2019-01-25T00:04:48.574Z,29.80
2019-01-25T00:07:20.055Z,29.70
2019-01-25T00:09:51.334Z,29.70
2019-01-25T00:12:22.402Z,29.70
2019-01-25T00:14:53.781Z,29.80
2019-01-25T00:17:24.910Z,29.80
2019-01-25T00:19:56.382Z,29.80
2019-01-25T00:22:27.803Z,29.70
2019-01-25T00:24:58.710Z,29.80
2019-01-25T00:27:30.107Z,29.80
2019-01-25T00:30:01.545Z,29.80
2019-01-25T00:32:32.997Z,29.80
2019-01-25T00:35:05.092Z,29.80
2019-01-25T00:37:36.821Z,29.80
2019-01-25T00:40:10.358Z,29.70
2019-01-25T00:42:41.590Z,29.70
2019-01-25T00:45:12.365Z,29.70
2019-01-25T00:47:42.717Z,29.70
2019-01-25T00:50:17.150Z,29.70
2019-01-25T00:52:48.706Z,29.70
2019-01-25T00:55:19.184Z,29.70
2019-01-25T00:57:50.572Z,29.70
2019-01-25T01:00:23.606Z,29.80
2019-01-25T01:02:54.719Z,29.70
2019-01-25T01:05:25.572Z,29.70
2019-01-25T01:07:56.692Z,29.70
2019-01-25T01:10:28.446Z,29.70
2019-01-25T01:12:59.936Z,29.70
2019-01-25T01:15:31.034Z,29.70
2019-01-25T01:18:02.515Z,29.70
2019-01-25T01:20:33.635Z,29.60
2019-01-25T01:23:04.806Z,29.60
2019-01-25T01:25:35.626Z,29.60
2019-01-25T01:28:06.453Z,29.60
2019-01-25T01:30:36.888Z,29.60
2019-01-25T01:33:07.702Z,29.60
2019-01-25T01:35:38.010Z,29.60
2019-01-25T01:38:08.977Z,29.60
2019-01-25T01:40:39.327Z,29.60
2019-01-25T01:43:10.649Z,29.60
2019-01-25T01:45:41.053Z,29.60
2019-01-25T01:48:12.017Z,29.60
2019-01-25T01:50:42.483Z,29.60
2019-01-25T01:53:13.126Z,29.60
2019-01-25T01:55:44.595Z,29.60
2019-01-25T01:58:15.667Z,29.70
2019-01-25T02:00:46.837Z,29.60
2019-01-25T02:03:18.578Z,29.60
2019-01-25T02:05:50.022Z,29.60
2019-01-25T02:08:20.874Z,29.60
2019-01-25T02:10:52.310Z,29.60
2019-01-25T02:13:23.482Z,29.60
2019-01-25T02:15:54.651Z,29.60
2019-01-25T02:18:26.047Z,29.60
2019-01-25T02:20:57.497Z,29.60
2019-01-25T02:23:28.666Z,29.60
2019-01-25T02:25:59.789Z,29.60
2019-01-25T02:28:30.929Z,29.60
2019-01-25T02:31:02.077Z,29.60
2019-01-25T02:33:32.910Z,29.60
2019-01-25T02:36:04.353Z,29.60
2019-01-25T02:38:35.813Z,29.60
2019-01-25T02:41:07.263Z,29.60
2019-01-25T02:43:38.418Z,29.60
2019-01-25T02:46:09.566Z,29.60
2019-01-25T02:48:40.603Z,29.60
2019-01-25T02:51:12.155Z,29.60
2019-01-25T02:53:43.006Z,29.60
2019-01-25T02:56:13.843Z,29.60
2019-01-25T02:58:44.959Z,29.60
2019-01-25T03:01:16.128Z,29.60
2019-01-25T03:03:47.308Z,29.60
2019-01-25T03:06:18.184Z,29.60
2019-01-25T03:08:49.218Z,29.60
2019-01-25T03:11:20.075Z,29.60
2019-01-25T03:13:51.500Z,29.60
2019-01-25T03:16:22.819Z,29.60
2019-01-25T03:18:53.526Z,29.60
2019-01-25T03:21:24.332Z,29.60
2019-01-25T03:23:55.362Z,29.60
2019-01-25T03:26:26.922Z,29.60
2019-01-25T03:28:58.468Z,29.60
2019-01-25T03:31:29.699Z,29.60
2019-01-25T03:34:00.657Z,29.60
2019-01-25T03:36:31.603Z,29.60
2019-01-25T03:39:02.982Z,29.60
2019-01-25T03:41:35.626Z,29.60
2019-01-25T03:44:07.416Z,29.60
2019-01-25T03:46:39.611Z,29.60
2019-01-25T03:49:12.338Z,29.60
2019-01-25T03:51:43.965Z,29.60
2019-01-25T03:54:15.337Z,29.60
2019-01-25T03:56:47.946Z,29.60
2019-01-25T03:59:18.859Z,29.70
2019-01-25T04:01:49.691Z,29.60
2019-01-25T04:04:21.765Z,29.70
2019-01-25T04:06:52.931Z,29.60
2019-01-25T04:09:23.785Z,29.60
2019-01-25T04:11:54.162Z,29.60
2019-01-25T04:14:25.109Z,29.70
2019-01-25T04:16:55.854Z,29.60
2019-01-25T04:19:27.740Z,29.60
2019-01-25T04:21:58.028Z,29.70
2019-01-25T04:24:29.061Z,29.60
2019-01-25T04:26:59.392Z,29.60
2019-01-25T04:29:30.202Z,29.60
2019-01-25T04:32:00.465Z,29.60
2019-01-25T04:34:31.186Z,29.60
2019-01-25T04:37:01.520Z,29.60
2019-01-25T04:39:32.547Z,29.70
2019-01-25T04:42:02.983Z,29.60
2019-01-25T04:44:33.915Z,29.60
2019-01-25T04:47:04.319Z,29.70
2019-01-25T04:49:37.601Z,29.60
2019-01-25T04:52:14.994Z,29.60
2019-01-25T04:54:45.892Z,29.60
2019-01-25T04:57:16.188Z,29.60
2019-01-25T04:59:46.931Z,29.60
2019-01-25T05:02:17.881Z,29.60
2019-01-25T05:04:48.655Z,29.60
2019-01-25T05:07:19.306Z,29.60
2019-01-25T05:09:50.116Z,29.60
2019-01-25T05:12:20.682Z,30.00
2019-01-25T05:14:51.334Z,29.60
2019-01-25T05:17:21.702Z,29.60
2019-01-25T05:19:52.995Z,29.70
2019-01-25T05:22:23.395Z,29.70
2019-01-25T05:24:54.234Z,29.70
2019-01-25T05:27:24.711Z,29.80
2019-01-25T05:29:56.325Z,29.80
2019-01-25T05:32:26.678Z,29.80
2019-01-25T05:34:57.676Z,30.00
2019-01-25T05:37:28.118Z,29.90
2019-01-25T05:39:59.025Z,30.00
2019-01-25T05:42:29.483Z,30.00
2019-01-25T05:45:01.672Z,30.10
2019-01-25T05:47:32.099Z,30.20
2019-01-25T05:50:03.063Z,30.20
2019-01-25T05:52:33.498Z,30.20
2019-01-25T05:55:04.432Z,30.20
2019-01-25T05:57:36.627Z,30.10
2019-01-25T06:00:11.313Z,30.10
2019-01-25T06:02:42.147Z,30.20
2019-01-25T06:05:13.823Z,30.30
2019-01-25T06:08:00.334Z,30.20
2019-01-25T06:10:34.311Z,30.20
2019-01-25T06:13:05.702Z,30.30
2019-01-25T06:15:36.589Z,30.30
2019-01-25T06:18:07.502Z,30.30
2019-01-25T06:20:38.578Z,30.20
2019-01-25T06:23:09.406Z,30.20
2019-01-25T06:25:40.560Z,30.10
2019-01-25T06:28:12.003Z,30.10
2019-01-25T06:30:42.837Z,30.20
2019-01-25T06:33:13.806Z,30.10
2019-01-25T06:35:44.177Z,30.00
2019-01-25T06:38:15.373Z,30.00
2019-01-25T06:40:46.072Z,30.00
2019-01-25T06:43:16.713Z,30.00
2019-01-25T06:45:47.107Z,30.00
2019-01-25T06:48:18.998Z,30.00
2019-01-25T06:50:49.397Z,30.00
2019-01-25T06:53:20.053Z,30.00
2019-01-25T06:55:50.467Z,30.00
2019-01-25T06:58:30.138Z,30.00
2019-01-25T07:01:34.779Z,30.00
2019-01-25T07:04:06.441Z,30.00
2019-01-25T07:06:37.554Z,30.00
2019-01-25T07:09:12.281Z,30.00
2019-01-25T07:11:51.307Z,30.00
2019-01-25T07:14:17.142Z,29.90
2019-01-25T07:16:48.570Z,29.90
2019-01-25T07:19:19.328Z,30.40
2019-01-25T07:21:50.065Z,29.90
2019-01-25T07:24:21.688Z,29.90
2019-01-25T07:26:52.642Z,29.90
2019-01-25T07:29:24.310Z,29.90
2019-01-25T07:31:55.429Z,29.80
2019-01-25T07:34:26.590Z,29.80
2019-01-25T07:36:57.661Z,29.80
2019-01-25T07:39:30.751Z,29.90
2019-01-25T07:42:02.451Z,29.80
2019-01-25T07:44:33.781Z,29.90
2019-01-25T07:47:05.405Z,29.80
2019-01-25T07:49:36.141Z,29.80
2019-01-25T07:52:07.722Z,29.80
2019-01-25T07:54:38.809Z,29.70
2019-01-25T07:57:09.522Z,29.70
2019-01-25T07:59:40.507Z,29.70
2019-01-25T08:02:11.664Z,29.70
2019-01-25T08:04:42.807Z,29.70
2019-01-25T08:07:13.125Z,29.60
2019-01-25T08:09:44.143Z,29.60
2019-01-25T08:12:14.681Z,29.60
2019-01-25T08:14:45.566Z,29.50
2019-01-25T08:17:15.929Z,29.60
2019-01-25T08:19:46.465Z,29.60
2019-01-25T08:22:17.080Z,29.50
2019-01-25T08:24:47.725Z,29.50
2019-01-25T08:27:18.440Z,29.60
2019-01-25T08:29:49.564Z,29.60
2019-01-25T08:32:20.238Z,29.50
2019-01-25T08:34:50.985Z,29.50
2019-01-25T08:37:21.636Z,29.50
2019-01-25T08:39:52.383Z,29.60
2019-01-25T08:42:23.063Z,29.60
2019-01-25T08:44:53.674Z,29.60
2019-01-25T08:47:24.519Z,29.60
2019-01-25T08:49:58.031Z,29.50
2019-01-25T08:52:27.429Z,29.50
2019-01-25T08:54:58.389Z,29.60
2019-01-25T08:57:29.097Z,29.50
2019-01-25T09:00:00.244Z,29.50
2019-01-25T09:02:31.634Z,29.50
2019-01-25T09:05:03.083Z,29.50
2019-01-25T09:07:34.415Z,29.40
2019-01-25T09:10:07.901Z,29.40
2019-01-25T09:12:38.623Z,29.30
2019-01-25T09:15:15.680Z,29.30
2019-01-25T09:17:46.481Z,29.80
2019-01-25T09:20:20.361Z,29.30
2019-01-25T09:22:51.529Z,29.30
2019-01-25T09:25:22.988Z,29.20
2019-01-25T09:27:54.452Z,29.20
2019-01-25T09:30:25.583Z,29.30
2019-01-25T09:32:57.023Z,29.20
2019-01-25T09:35:28.478Z,29.40
2019-01-25T09:37:59.932Z,29.60
2019-01-25T09:40:31.378Z,29.70
2019-01-25T09:43:02.800Z,29.60
2019-01-25T09:45:33.973Z,29.60
2019-01-25T09:48:05.073Z,29.60
2019-01-25T09:50:35.954Z,29.60
2019-01-25T09:53:07.127Z,29.60
2019-01-25T09:55:38.551Z,29.60
2019-01-25T09:58:12.195Z,29.70
2019-01-25T10:00:50.577Z,29.60
2019-01-25T10:03:21.785Z,29.60
2019-01-25T10:05:52.954Z,30.30
2019-01-25T10:08:24.100Z,29.80
2019-01-25T10:10:55.276Z,29.80
2019-01-25T10:13:26.693Z,29.70
2019-01-25T10:15:57.835Z,29.80
2019-01-25T10:18:29.162Z,29.80
2019-01-25T10:21:00.138Z,29.80
2019-01-25T10:23:30.845Z,30.20
2019-01-25T10:26:01.543Z,29.90
2019-01-25T10:28:31.949Z,29.80
2019-01-25T10:31:02.669Z,29.80
2019-01-25T10:33:33.099Z,29.70
2019-01-25T10:36:03.740Z,29.60
2019-01-25T10:38:35.368Z,29.60
2019-01-25T10:41:06.315Z,29.60
2019-01-25T10:43:36.728Z,29.50
2019-01-25T10:46:07.626Z,29.50
2019-01-25T10:48:38.394Z,29.50
2019-01-25T10:51:09.045Z,29.50
2019-01-25T10:53:39.367Z,29.40
2019-01-25T10:56:10.146Z,29.40
2019-01-25T10:58:40.675Z,29.40
2019-01-25T11:01:11.289Z,29.40
2019-01-25T11:03:42.281Z,29.40
2019-01-25T11:06:13.501Z,29.40
2019-01-25T11:08:44.388Z,29.30
2019-01-25T11:11:15.521Z,29.30
2019-01-25T11:13:46.682Z,29.30
2019-01-25T11:16:17.806Z,29.30
2019-01-25T11:18:49.254Z,29.20
2019-01-25T11:21:20.401Z,29.20
2019-01-25T11:23:51.233Z,29.20
2019-01-25T11:26:21.994Z,29.20
2019-01-25T11:28:52.913Z,29.20
2019-01-25T11:31:23.354Z,29.10
2019-01-25T11:33:54.217Z,29.20
2019-01-25T11:36:24.807Z,29.20
2019-01-25T11:38:55.417Z,29.20
2019-01-25T11:41:25.859Z,29.10
2019-01-25T11:43:56.560Z,29.70
2019-01-25T11:46:28.391Z,29.10
2019-01-25T11:48:59.078Z,29.10
2019-01-25T11:51:29.515Z,29.20
2019-01-25T11:54:00.230Z,29.10
2019-01-25T11:56:30.729Z,29.10
2019-01-25T11:59:01.890Z,29.10
2019-01-25T12:01:32.552Z,29.10
2019-01-25T12:04:03.335Z,29.10
2019-01-25T12:06:34.612Z,29.10
2019-01-25T12:09:09.255Z,29.10
2019-01-25T12:11:40.506Z,29.00
2019-01-25T12:14:13.086Z,29.00
2019-01-25T12:16:45.356Z,29.00
2019-01-25T12:19:16.625Z,29.00
2019-01-25T12:21:49.217Z,29.00
2019-01-25T12:24:20.739Z,29.00
2019-01-25T12:26:52.379Z,29.00
2019-01-25T12:29:23.343Z,29.00
2019-01-25T12:31:55.086Z,28.90
2019-01-25T12:34:26.244Z,29.00
2019-01-25T12:36:57.369Z,29.00
2019-01-25T12:39:28.821Z,29.00
2019-01-25T12:41:59.586Z,29.00
2019-01-25T12:44:30.369Z,29.00
2019-01-25T12:47:01.827Z,29.00
2019-01-25T12:49:32.252Z,29.00
2019-01-25T12:52:08.457Z,29.00
2019-01-25T12:54:38.975Z,29.10
2019-01-25T12:57:09.607Z,29.10
2019-01-25T12:59:41.074Z,29.10
2019-01-25T13:02:11.580Z,29.20
2019-01-25T13:04:42.416Z,29.10
2019-01-25T13:07:13.555Z,29.20
2019-01-25T13:09:45.008Z,29.20
2019-01-25T13:12:16.537Z,29.20
2019-01-25T13:14:47.629Z,29.20
2019-01-25T13:17:18.437Z,29.20
2019-01-25T13:19:49.579Z,29.10
2019-01-25T13:22:20.719Z,29.10
2019-01-25T13:24:51.823Z,29.10
2019-01-25T13:27:22.702Z,29.00
2019-01-25T13:29:53.883Z,29.10
2019-01-25T13:32:24.985Z,29.00
2019-01-25T13:34:55.329Z,29.10
2019-01-25T13:37:26.095Z,29.00
2019-01-25T13:39:56.465Z,29.10
2019-01-25T13:42:27.425Z,29.10
2019-01-25T13:44:57.831Z,29.10
2019-01-25T13:47:30.065Z,29.10
2019-01-25T13:50:00.654Z,29.20
2019-01-25T13:52:32.606Z,29.20
2019-01-25T13:55:03.018Z,29.20
2019-01-25T13:57:33.761Z,29.10
2019-01-25T14:00:05.917Z,29.10
2019-01-25T14:02:36.878Z,29.10
2019-01-25T14:05:08.020Z,29.00
2019-01-25T14:07:38.858Z,29.00
2019-01-25T14:10:12.698Z,29.00
2019-01-25T14:12:44.826Z,29.00
2019-01-25T14:15:15.981Z,29.00
2019-01-25T14:17:47.141Z,29.00
2019-01-25T14:20:23.436Z,29.00
2019-01-25T14:22:53.329Z,29.00
2019-01-25T14:25:24.941Z,29.10
2019-01-25T14:27:55.863Z,29.10
2019-01-25T14:30:41.572Z,29.10
2019-01-25T14:33:12.685Z,29.10
2019-01-25T14:35:43.886Z,29.20
2019-01-25T14:38:16.822Z,29.40
2019-01-25T14:40:47.689Z,29.40
2019-01-25T14:43:18.829Z,29.80
2019-01-25T14:45:49.975Z,29.20
2019-01-25T14:48:21.161Z,29.30
2019-01-25T14:50:52.871Z,29.20
2019-01-25T14:53:24.049Z,29.20
2019-01-25T14:55:55.169Z,29.20
2019-01-25T14:58:26.302Z,29.20
2019-01-25T15:00:57.770Z,29.20
2019-01-25T15:03:29.204Z,29.40
2019-01-25T15:06:00.373Z,29.40
2019-01-25T15:08:31.215Z,29.40
2019-01-25T15:11:02.639Z,29.30
2019-01-25T15:13:33.774Z,29.20
2019-01-25T15:16:04.962Z,29.20
2019-01-25T15:18:35.707Z,29.50
2019-01-25T15:21:06.592Z,29.30
2019-01-25T15:23:38.353Z,29.20
2019-01-25T15:26:09.810Z,29.30
2019-01-25T15:28:41.054Z,29.20
2019-01-25T15:31:12.096Z,29.20
2019-01-25T15:33:42.968Z,29.20
2019-01-25T15:36:14.699Z,29.20
2019-01-25T15:38:45.868Z,29.30
2019-01-25T15:41:16.610Z,29.20
2019-01-25T15:43:47.503Z,29.10
2019-01-25T15:46:18.983Z,29.10
2019-01-25T15:48:51.252Z,29.60
2019-01-25T15:51:22.474Z,29.10
2019-01-25T15:53:53.918Z,29.00
2019-01-25T15:56:24.270Z,29.00
2019-01-25T15:58:54.915Z,29.00
2019-01-25T16:01:25.426Z,29.00
2019-01-25T16:03:56.351Z,29.10
2019-01-25T16:06:28.405Z,29.00
2019-01-25T16:08:59.862Z,29.10
2019-01-25T16:11:30.701Z,29.30
2019-01-25T16:14:01.987Z,30.80
2019-01-25T16:16:32.912Z,32.50
2019-01-25T16:19:04.747Z,32.40
2019-01-25T16:21:35.593Z,32.10
2019-01-25T16:24:06.784Z,31.90
2019-01-25T16:26:37.859Z,31.80
2019-01-25T16:29:09.625Z,31.60
2019-01-25T16:31:40.458Z,31.40
2019-01-25T16:34:11.950Z,31.30
2019-01-25T16:36:43.363Z,31.40
2019-01-25T16:39:15.098Z,31.40
2019-01-25T16:41:46.332Z,31.60
2019-01-25T16:44:17.531Z,31.50
2019-01-25T16:46:48.568Z,31.40
2019-01-25T16:49:19.419Z,31.50
2019-01-25T16:51:50.662Z,31.40
2019-01-25T16:54:22.061Z,31.30
2019-01-25T16:56:53.439Z,31.40
2019-01-25T16:59:24.582Z,31.10
2019-01-25T17:01:55.416Z,31.10
2019-01-25T17:04:26.537Z,31.00
2019-01-25T17:06:57.703Z,31.00
2019-01-25T17:09:29.163Z,30.90
2019-01-25T17:12:01.081Z,30.80
2019-01-25T17:14:33.489Z,30.80
2019-01-25T17:17:04.131Z,30.80
2019-01-25T17:19:35.199Z,30.70
2019-01-25T17:22:06.850Z,30.70
2019-01-25T17:24:37.255Z,30.60
2019-01-25T17:27:09.613Z,30.60
2019-01-25T17:29:40.070Z,30.60
2019-01-25T17:32:11.926Z,30.50
2019-01-25T17:34:42.307Z,30.40
2019-01-25T17:37:12.996Z,30.40
2019-01-25T17:39:43.385Z,30.40
2019-01-25T17:42:14.335Z,30.40
2019-01-25T17:44:44.747Z,30.30
2019-01-25T17:47:15.747Z,30.30
2019-01-25T17:49:46.423Z,30.20
2019-01-25T17:52:18.010Z,30.20
2019-01-25T17:54:50.032Z,30.20
2019-01-25T17:57:20.889Z,30.20
2019-01-25T17:59:51.400Z,30.00
2019-01-25T18:02:22.565Z,30.00
2019-01-25T18:04:52.992Z,30.00
2019-01-25T18:07:24.223Z,30.00
2019-01-25T18:09:58.387Z,30.00
2019-01-25T18:12:30.208Z,30.00
2019-01-25T18:15:01.362Z,30.00
2019-01-25T18:17:32.487Z,30.00
2019-01-25T18:20:03.881Z,30.00
2019-01-25T18:22:35.081Z,30.00
2019-01-25T18:25:06.897Z,30.00
2019-01-25T18:27:38.089Z,29.90
2019-01-25T18:30:21.413Z,29.90
2019-01-25T18:32:51.854Z,29.90
2019-01-25T18:35:22.789Z,29.90
2019-01-25T18:37:54.773Z,29.90
2019-01-25T18:40:26.297Z,29.80
2019-01-25T18:42:57.609Z,29.80
2019-01-25T18:45:29.518Z,29.80
2019-01-25T18:47:59.858Z,29.80
2019-01-25T18:50:31.179Z,29.80
2019-01-25T18:53:01.602Z,29.80
2019-01-25T18:55:32.901Z,29.80
2019-01-25T18:58:03.332Z,29.80
2019-01-25T19:00:34.252Z,29.80
2019-01-25T19:03:05.983Z,29.70
2019-01-25T19:05:36.818Z,29.70
2019-01-25T19:08:07.966Z,29.70
2019-01-25T19:10:40.115Z,29.60
2019-01-25T19:13:11.473Z,29.60
2019-01-25T19:15:42.931Z,29.60
2019-01-25T19:18:14.370Z,29.60
2019-01-25T19:20:45.514Z,29.60
2019-01-25T19:23:16.641Z,29.60
2019-01-25T19:25:47.820Z,29.60
2019-01-25T19:28:19.258Z,29.60
2019-01-25T19:30:50.185Z,29.60
2019-01-25T19:33:20.975Z,29.60
2019-01-25T19:35:52.649Z,29.60
2019-01-25T19:38:23.717Z,29.60
2019-01-25T19:40:54.245Z,29.50
2019-01-25T19:43:25.508Z,29.50
2019-01-25T19:45:56.143Z,29.50
2019-01-25T19:48:26.870Z,29.50
2019-01-25T19:50:57.220Z,29.50
2019-01-25T19:53:28.292Z,29.40
2019-01-25T19:55:59.650Z,29.20
2019-01-25T19:58:30.839Z,29.40
2019-01-25T20:01:01.266Z,29.30
2019-01-25T20:03:37.918Z,29.30
2019-01-25T20:06:08.773Z,29.80
2019-01-25T20:08:39.738Z,29.30
2019-01-25T20:11:10.676Z,29.40
2019-01-25T20:13:42.142Z,29.40
2019-01-25T20:16:13.708Z,29.50
2019-01-25T20:18:45.089Z,29.40
2019-01-25T20:21:16.291Z,29.50
2019-01-25T20:23:47.421Z,29.40
2019-01-25T20:26:18.542Z,29.40
2019-01-25T20:28:49.723Z,29.60
2019-01-25T20:31:20.540Z,29.50
2019-01-25T20:33:51.701Z,29.60
2019-01-25T20:36:22.586Z,29.60
2019-01-25T20:38:53.743Z,29.60
2019-01-25T20:41:24.119Z,29.60
2019-01-25T20:43:55.304Z,29.60
2019-01-25T20:46:28.270Z,29.60
2019-01-25T20:48:59.169Z,29.60
2019-01-25T20:51:29.525Z,29.70
2019-01-25T20:54:00.341Z,29.70
2019-01-25T20:56:30.822Z,29.70
2019-01-25T20:59:01.513Z,29.70
2019-01-25T21:01:31.822Z,29.70
2019-01-25T21:04:02.862Z,29.70
2019-01-25T21:06:34.215Z,29.70
2019-01-25T21:09:07.974Z,29.70
2019-01-25T21:11:39.328Z,29.70
2019-01-25T21:14:10.499Z,29.70
2019-01-25T21:16:41.574Z,29.70
2019-01-25T21:19:12.602Z,29.70
2019-01-25T21:21:43.382Z,29.70
2019-01-25T21:24:14.566Z,29.70
2019-01-25T21:26:45.380Z,29.70
2019-01-25T21:29:16.296Z,29.70
2019-01-25T21:31:46.790Z,29.70
2019-01-25T21:34:17.502Z,29.70
2019-01-25T21:36:50.012Z,29.70
2019-01-25T21:39:21.177Z,29.70
2019-01-25T21:41:52.305Z,29.70
2019-01-25T21:44:23.073Z,29.70
2019-01-25T21:46:53.585Z,29.70
2019-01-25T21:49:24.310Z,29.70
2019-01-25T21:51:54.958Z,29.70
2019-01-25T21:54:27.309Z,29.70
2019-01-25T21:56:59.657Z,29.70
2019-01-25T21:59:30.348Z,29.70
2019-01-25T22:02:01.198Z,29.70
2019-01-25T22:04:31.862Z,29.70
2019-01-25T22:07:02.273Z,29.70
2019-01-25T22:09:33.527Z,29.70
2019-01-25T22:12:05.642Z,29.70
2019-01-25T22:14:36.676Z,29.70
2019-01-25T22:17:08.246Z,29.70
2019-01-25T22:19:39.994Z,29.70
2019-01-25T22:22:11.142Z,29.70
2019-01-25T22:24:42.639Z,29.60
2019-01-25T22:27:13.771Z,29.70
2019-01-25T22:29:45.429Z,29.60
2019-01-25T22:32:16.366Z,29.70
2019-01-25T22:34:47.539Z,29.70
2019-01-25T22:37:18.870Z,29.70
2019-01-25T22:39:50.082Z,29.60
2019-01-25T22:42:21.525Z,29.60
2019-01-25T22:44:52.680Z,29.60
2019-01-25T22:47:23.999Z,29.60
2019-01-25T22:49:55.252Z,29.60
2019-01-25T22:52:26.254Z,29.60
2019-01-25T22:54:57.932Z,29.70
2019-01-25T22:57:30.323Z,29.60
2019-01-25T23:00:02.490Z,29.60
2019-01-25T23:02:35.425Z,29.60
2019-01-25T23:05:58.744Z,29.60
2019-01-25T23:08:31.555Z,29.60
2019-01-25T23:11:02.702Z,29.70
2019-01-25T23:13:34.115Z,29.60
2019-01-25T23:16:06.414Z,29.60
2019-01-25T23:18:39.229Z,29.60
2019-01-25T23:21:11.552Z,29.60
2019-01-25T23:23:41.900Z,29.60
2019-01-25T23:26:12.604Z,29.60
2019-01-25T23:28:43.148Z,29.60
2019-01-25T23:31:14.067Z,29.60
2019-01-25T23:33:44.377Z,29.60
2019-01-25T23:36:15.270Z,29.60
2019-01-25T23:38:45.659Z,29.60
2019-01-25T23:41:16.544Z,29.60
2019-01-25T23:43:47.006Z,29.60
2019-01-25T23:46:17.965Z,29.60
2019-01-25T23:48:48.294Z,29.60
2019-01-25T23:51:23.046Z,29.60
2019-01-25T23:53:52.434Z,29.60
2019-01-25T23:56:23.246Z,29.60
2019-01-25T23:58:53.593Z,29.60
